Portada
METAR-TAF:

METAR-TAF

Aeroports :

Nanning, Xina

latitud: 22-49N, longitud: 108-21E, altitud: 73 m

Observació

L'informe es va fer fa 1 hora i 3 minuts, a les 19:00 UTC
Vent 2 kt amb direcció variable
Temperatura 27°C
Humitat 89%
Pressió 1006 hPa
Visibilitat 10 km o més
sense núvols per sota de 1500 mi sense presència de cumulonimbus.

METAR: ZGNN 011900Z VRB01MPS CAVOK 27/25 Q1006 NOSIG

Hora: 04:03 (20:03 UTC)

Pronòstic

L'informe es va fer fa 4 hores i 55 minuts, a les 15:08 UTC
Pronòstic vàlid del 01 a les 18 UTC al 02 a les 18 UTC
Vent 6 kt del Sud/Sud-Est
Visibilitat: 5000 m
Escasses núvols a una alçada de 1300 ft
Núvols disperses a una alçada de 3300 ft
boirina
Temporalment
l' 01 a les 21 UTC al 02 a les 03 UTC
Núvols disperses a una alçada de 1000 ft
Escasses núvols a una alçada de 2600 ft, Cumulonimbus.
Cel ennuvolat a una alçada de 3000 ft
tempesta, pluja

TAF: ZGNN 011508Z 0118/0218 16003MPS 5000 BR FEW013 SCT033 TX33/0207Z TN25/0122Z TEMPO 0121/0203 TSRA SCT010 FEW026CB BKN030

Observacions i pronòstics meteorològics de més de 4000 aeroports (METAR i TAF).

Les estacions disponibles són els punts grocs i vermells al mapa.

Posi el ratolí al punt desitjat per veure el nom de l'estació.

Feu clic per veure les observacions i els pronòstics meteorològics.

Per canviar el mapa: feu clic els botons verds amb una creu de color negre per apropar; al botó verd amb un guió per allunyar la imatge; o en les fletxes verdes per a mapes adjacents.


METAR-TAF: